createdAt,value
2022-08-18T00:03:11.685Z,23.50
2022-08-18T00:07:32.320Z,23.40
2022-08-18T00:11:40.471Z,23.40
2022-08-18T00:15:48.866Z,23.30
2022-08-18T00:19:51.126Z,23.30
2022-08-18T00:23:53.940Z,23.30
2022-08-18T00:27:55.715Z,23.30
2022-08-18T00:31:57.823Z,23.20
2022-08-18T00:36:02.571Z,23.10
2022-08-18T00:40:05.323Z,23.10
2022-08-18T00:44:07.221Z,23.10
2022-08-18T00:48:10.440Z,23.10
2022-08-18T00:52:14.555Z,23.20
2022-08-18T00:56:41.342Z,23.10
2022-08-18T01:00:43.165Z,23.10
2022-08-18T01:05:12.970Z,23.00
2022-08-18T01:09:17.078Z,23.00
2022-08-18T01:13:18.882Z,22.90
2022-08-18T01:17:40.089Z,22.90
2022-08-18T01:21:52.490Z,22.80
2022-08-18T01:25:59.934Z,22.90
2022-08-18T01:30:10.332Z,22.90
2022-08-18T01:34:12.322Z,22.80
2022-08-18T01:38:14.836Z,22.80
2022-08-18T01:42:19.868Z,22.70
2022-08-18T01:46:21.907Z,22.60
2022-08-18T01:50:23.802Z,22.60
2022-08-18T01:54:30.156Z,22.40
2022-08-18T01:58:33.583Z,22.40
2022-08-18T02:02:35.352Z,22.30
2022-08-18T02:06:47.867Z,22.40
2022-08-18T02:10:56.391Z,22.40
2022-08-18T02:15:04.395Z,22.30
2022-08-18T02:19:12.425Z,22.30
2022-08-18T02:23:15.624Z,22.30
2022-08-18T02:27:17.430Z,22.40
2022-08-18T02:31:22.082Z,22.50
2022-08-18T02:35:24.035Z,22.50
2022-08-18T02:39:25.868Z,22.50
2022-08-18T02:43:28.368Z,22.50
2022-08-18T02:47:33.544Z,22.50
2022-08-18T02:51:36.036Z,22.60
2022-08-18T02:55:37.845Z,22.60
2022-08-18T02:59:40.434Z,22.60
2022-08-18T03:03:42.307Z,22.50
2022-08-18T03:07:44.486Z,22.50
2022-08-18T03:11:46.524Z,22.50
2022-08-18T03:15:51.172Z,22.50
2022-08-18T03:19:56.914Z,22.50
2022-08-18T03:24:01.330Z,22.50
2022-08-18T03:28:04.868Z,22.60
2022-08-18T03:32:07.164Z,22.60
2022-08-18T03:36:17.859Z,22.50
2022-08-18T03:40:20.465Z,22.40
2022-08-18T03:44:23.101Z,22.40
2022-08-18T03:48:25.405Z,22.40
2022-08-18T03:52:29.099Z,22.40
2022-08-18T03:56:33.979Z,22.40
2022-08-18T04:00:38.150Z,22.40
2022-08-18T04:04:42.944Z,22.30
2022-08-18T04:08:46.405Z,22.30
2022-08-18T04:12:50.262Z,22.30
2022-08-18T04:16:53.344Z,22.20
2022-08-18T04:20:57.704Z,22.10
2022-08-18T04:25:01.926Z,22.10
2022-08-18T04:29:05.667Z,22.00
2022-08-18T04:33:07.452Z,22.10
2022-08-18T04:37:09.815Z,22.10
2022-08-18T04:41:12.952Z,22.30
2022-08-18T04:45:15.138Z,22.40
2022-08-18T04:49:25.653Z,22.70
2022-08-18T04:53:45.646Z,23.00
2022-08-18T04:57:50.558Z,23.40
2022-08-18T05:01:55.406Z,23.60
2022-08-18T05:05:59.835Z,23.50
2022-08-18T05:10:01.700Z,23.60
2022-08-18T05:14:06.247Z,24.20
2022-08-18T05:18:08.202Z,24.80
2022-08-18T05:22:18.410Z,24.90
2022-08-18T05:26:20.525Z,25.50
2022-08-18T05:30:22.320Z,25.20
2022-08-18T05:34:24.089Z,25.30
2022-08-18T05:38:40.145Z,25.30
2022-08-18T05:42:41.979Z,25.00
2022-08-18T05:46:52.333Z,25.10
2022-08-18T05:50:55.159Z,25.30
2022-08-18T05:55:19.740Z,26.20
2022-08-18T05:59:32.513Z,27.10
2022-08-18T06:03:47.765Z,28.20
2022-08-18T06:08:09.903Z,29.20
2022-08-18T06:12:46.850Z,30.30
2022-08-18T06:17:28.734Z,31.30
2022-08-18T06:21:43.249Z,32.20
2022-08-18T06:26:47.255Z,33.30
2022-08-18T06:31:20.352Z,33.50
2022-08-18T06:35:24.957Z,34.10
2022-08-18T06:39:51.111Z,34.80
2022-08-18T06:44:05.125Z,34.10
2022-08-18T06:48:17.890Z,33.70
2022-08-18T06:52:29.848Z,33.10
2022-08-18T06:56:40.825Z,32.70
2022-08-18T07:01:07.785Z,32.40
2022-08-18T07:05:22.587Z,33.20
2022-08-18T07:09:27.733Z,33.30
2022-08-18T07:14:03.702Z,32.90
2022-08-18T07:18:22.257Z,33.30
2022-08-18T07:22:38.896Z,32.60
2022-08-18T07:27:13.719Z,32.20
2022-08-18T07:31:53.257Z,31.80
2022-08-18T07:36:14.141Z,31.50
2022-08-18T07:41:03.909Z,31.50
2022-08-18T07:45:31.008Z,31.30
2022-08-18T07:49:36.159Z,31.40
2022-08-18T07:53:56.559Z,31.20
2022-08-18T07:58:39.039Z,31.00
2022-08-18T08:02:50.093Z,31.00
2022-08-18T08:07:24.837Z,30.70
2022-08-18T08:12:31.151Z,30.60
2022-08-18T08:17:24.993Z,30.40
2022-08-18T08:21:36.468Z,30.20
2022-08-18T08:26:31.423Z,30.20
2022-08-18T08:30:42.127Z,30.40
2022-08-18T08:35:48.848Z,30.40
2022-08-18T08:40:00.862Z,30.80
2022-08-18T08:44:09.795Z,31.70
2022-08-18T08:48:26.913Z,32.70
2022-08-18T08:52:50.911Z,33.50
2022-08-18T08:56:59.347Z,34.20
2022-08-18T09:01:10.775Z,35.00
2022-08-18T09:05:23.434Z,34.70
2022-08-18T09:10:08.425Z,34.70
2022-08-18T09:14:41.397Z,35.00
2022-08-18T09:19:08.438Z,35.60
2022-08-18T09:23:13.721Z,35.90
2022-08-18T09:28:08.877Z,36.00
2022-08-18T09:32:56.902Z,35.60
2022-08-18T09:37:38.306Z,34.80
2022-08-18T09:42:29.972Z,34.60
2022-08-18T09:47:00.336Z,34.50
2022-08-18T09:51:20.008Z,34.20
2022-08-18T09:56:00.745Z,33.80
2022-08-18T10:00:03.610Z,33.30
2022-08-18T10:04:37.803Z,32.90
2022-08-18T10:09:14.592Z,32.80
2022-08-18T10:14:31.921Z,32.80
2022-08-18T10:19:33.668Z,32.60
2022-08-18T10:24:21.797Z,32.70
2022-08-18T10:29:12.410Z,32.50
2022-08-18T10:33:18.221Z,32.50
2022-08-18T10:37:29.832Z,32.50
2022-08-18T10:41:47.302Z,32.40
2022-08-18T10:50:22.315Z,32.50
2022-08-18T10:59:28.274Z,32.40
2022-08-18T11:04:13.860Z,32.50
2022-08-18T11:08:25.156Z,32.40
2022-08-18T11:13:21.756Z,32.20
2022-08-18T11:18:11.470Z,32.20
2022-08-18T11:22:36.645Z,32.10
2022-08-18T11:27:23.427Z,32.20
2022-08-18T11:31:25.310Z,32.00
2022-08-18T11:35:44.358Z,31.90
2022-08-18T11:39:53.489Z,31.80
2022-08-18T11:43:59.982Z,31.60
2022-08-18T11:48:53.100Z,31.60
2022-08-18T11:52:57.042Z,31.50
2022-08-18T11:57:46.763Z,31.20
2022-08-18T12:01:59.187Z,30.90
2022-08-18T12:06:31.000Z,30.60
2022-08-18T12:10:32.894Z,30.30
2022-08-18T12:15:02.976Z,30.20
2022-08-18T12:19:14.349Z,30.10
2022-08-18T12:23:21.353Z,30.00
2022-08-18T12:27:32.031Z,30.10
2022-08-18T12:31:42.714Z,30.30
2022-08-18T12:35:53.295Z,30.40
2022-08-18T12:39:59.334Z,30.50
2022-08-18T12:44:05.101Z,30.60
2022-08-18T12:48:18.304Z,30.70
2022-08-18T12:52:29.988Z,30.80
2022-08-18T12:56:34.245Z,30.90
2022-08-18T13:00:40.789Z,31.00
2022-08-18T13:04:43.103Z,31.20
2022-08-18T13:08:50.212Z,31.40
2022-08-18T13:12:53.004Z,31.40
2022-08-18T13:16:55.337Z,31.40
2022-08-18T13:21:00.643Z,31.50
2022-08-18T13:25:05.371Z,31.50
2022-08-18T13:29:10.156Z,31.50
2022-08-18T13:33:53.595Z,31.50
2022-08-18T13:37:34.436Z,31.30
2022-08-18T13:41:36.287Z,31.40
2022-08-18T13:45:42.716Z,31.50
2022-08-18T13:49:58.984Z,31.50
2022-08-18T13:54:29.480Z,31.90
2022-08-18T13:58:23.690Z,32.30
2022-08-18T14:02:26.653Z,32.10
2022-08-18T14:06:32.033Z,32.10
2022-08-18T14:10:36.767Z,31.90
2022-08-18T14:14:41.743Z,31.90
2022-08-18T14:18:43.527Z,32.00
2022-08-18T14:23:21.512Z,31.80
2022-08-18T14:27:35.073Z,31.60
2022-08-18T14:31:45.094Z,31.40
2022-08-18T14:36:06.022Z,31.10
2022-08-18T14:40:12.419Z,30.90
2022-08-18T14:44:16.864Z,30.60
2022-08-18T14:48:27.455Z,30.50
2022-08-18T14:52:29.645Z,30.60
2022-08-18T14:56:33.525Z,30.40
2022-08-18T15:00:49.761Z,30.40
2022-08-18T15:05:01.810Z,30.40
2022-08-18T15:09:42.343Z,30.30
2022-08-18T15:13:47.673Z,30.40
2022-08-18T15:17:53.531Z,30.40
2022-08-18T15:22:15.961Z,30.40
2022-08-18T15:26:30.603Z,30.10
2022-08-18T15:30:32.580Z,30.00
2022-08-18T15:34:46.153Z,30.00
2022-08-18T15:38:53.534Z,30.10
2022-08-18T15:43:01.288Z,30.20
2022-08-18T15:47:04.774Z,30.30
2022-08-18T15:51:11.818Z,30.40
2022-08-18T15:55:14.416Z,30.30
2022-08-18T15:59:16.776Z,30.20
2022-08-18T16:03:20.581Z,30.30
2022-08-18T16:07:25.151Z,30.30
2022-08-18T16:11:42.687Z,30.10
2022-08-18T16:15:46.848Z,30.10
2022-08-18T16:19:49.841Z,29.90
2022-08-18T16:24:18.202Z,29.80
2022-08-18T16:28:20.335Z,29.90
2022-08-18T16:32:39.041Z,29.80
2022-08-18T16:36:41.068Z,29.70
2022-08-18T16:40:49.533Z,29.80
2022-08-18T16:44:51.787Z,29.60
2022-08-18T16:48:57.619Z,29.70
2022-08-18T16:53:01.338Z,29.60
2022-08-18T16:57:09.886Z,29.50
2022-08-18T17:01:33.754Z,29.40
2022-08-18T17:05:59.349Z,29.30
2022-08-18T17:10:04.753Z,29.20
2022-08-18T17:14:07.644Z,29.20
2022-08-18T17:18:12.612Z,29.20
2022-08-18T17:22:17.384Z,29.00
2022-08-18T17:27:03.990Z,29.00
2022-08-18T17:31:14.224Z,28.90
2022-08-18T17:35:37.373Z,28.80
2022-08-18T17:40:00.417Z,28.80
2022-08-18T17:44:04.270Z,28.70
2022-08-18T17:48:17.858Z,28.70
2022-08-18T17:52:21.380Z,28.60
2022-08-18T17:56:35.525Z,28.50
2022-08-18T18:00:39.798Z,28.40
2022-08-18T18:04:51.312Z,28.40
2022-08-18T18:09:37.924Z,28.30
2022-08-18T18:14:05.312Z,28.30
2022-08-18T18:18:55.436Z,28.30
2022-08-18T18:23:27.237Z,28.20
2022-08-18T18:27:48.544Z,28.10
2022-08-18T18:32:40.827Z,27.90
2022-08-18T18:36:48.761Z,27.80
2022-08-18T18:41:10.679Z,27.60
2022-08-18T18:45:27.442Z,27.50
2022-08-18T18:50:25.994Z,27.40
2022-08-18T18:55:02.870Z,27.40
2022-08-18T18:59:47.641Z,27.40
2022-08-18T19:04:33.535Z,27.30
2022-08-18T19:09:22.286Z,27.20
2022-08-18T19:13:35.760Z,27.10
2022-08-18T19:17:58.382Z,27.00
2022-08-18T19:22:37.870Z,27.00
2022-08-18T19:26:46.095Z,26.80
2022-08-18T19:30:49.985Z,26.80
2022-08-18T19:34:55.850Z,26.80
2022-08-18T19:39:17.978Z,26.80
2022-08-18T19:43:53.841Z,26.60
2022-08-18T19:48:55.127Z,26.40
2022-08-18T19:53:52.589Z,26.20
2022-08-18T19:58:58.555Z,26.10
2022-08-18T20:03:43.057Z,25.90
2022-08-18T20:09:05.607Z,25.70
2022-08-18T20:13:43.331Z,25.60
2022-08-18T20:18:06.702Z,25.40
2022-08-18T20:22:46.996Z,25.30
2022-08-18T20:26:55.007Z,25.20
2022-08-18T20:31:15.332Z,25.20
2022-08-18T20:35:36.904Z,25.20
2022-08-18T20:40:01.225Z,25.10
2022-08-18T20:44:40.041Z,25.00
2022-08-18T20:49:27.775Z,24.90
2022-08-18T20:53:50.898Z,24.90
2022-08-18T20:58:04.140Z,24.90
2022-08-18T21:02:40.927Z,24.80
2022-08-18T21:06:52.165Z,24.80
2022-08-18T21:11:02.882Z,24.70
2022-08-18T21:15:13.143Z,24.80
2022-08-18T21:19:30.419Z,24.80
2022-08-18T21:23:41.494Z,24.70
2022-08-18T21:27:51.971Z,24.70
2022-08-18T21:32:20.734Z,24.70
2022-08-18T21:36:29.774Z,24.60
2022-08-18T21:41:13.191Z,24.40
2022-08-18T21:45:29.371Z,24.30
2022-08-18T21:49:32.539Z,24.20
2022-08-18T21:53:35.531Z,24.10
2022-08-18T21:58:14.048Z,24.10
2022-08-18T22:02:21.420Z,24.00
2022-08-18T22:06:35.199Z,24.00
2022-08-18T22:10:57.676Z,23.90
2022-08-18T22:15:10.533Z,23.90
2022-08-18T22:19:23.822Z,24.00
2022-08-18T22:23:58.252Z,24.00
2022-08-18T22:28:00.485Z,24.00
2022-08-18T22:32:04.073Z,24.00
2022-08-18T22:36:06.069Z,24.00
2022-08-18T22:40:13.796Z,24.00
2022-08-18T22:44:16.284Z,24.00
2022-08-18T22:48:18.166Z,24.10
2022-08-18T22:52:29.591Z,24.00
2022-08-18T22:56:34.495Z,24.00
2022-08-18T23:00:39.354Z,23.90
2022-08-18T23:04:48.393Z,23.90
2022-08-18T23:08:55.345Z,23.90
2022-08-18T23:13:00.982Z,23.90
2022-08-18T23:17:08.248Z,23.80
2022-08-18T23:21:13.179Z,23.80
2022-08-18T23:25:35.178Z,23.70
2022-08-18T23:29:41.261Z,23.70
2022-08-18T23:33:43.050Z,23.70
2022-08-18T23:37:45.076Z,23.60
2022-08-18T23:41:46.847Z,23.60
2022-08-18T23:45:55.777Z,23.50
2022-08-18T23:49:57.854Z,23.50
2022-08-18T23:54:03.488Z,23.40
2022-08-18T23:58:05.680Z,23.40
